EDW2A EDDF-EDDL
Flight info
| Callsign | EDW2A |
|---|---|
| Flight time | 0h 22m |
| Altitude | 22000 |
| Route | MARUN3W/25C MARUN Y152 ARPEG Z850 ADEMI T854 DOMUX DOMUX1A |
| Aircraft | A320/M-SDE3FGHIRWY/LB1 |
Departure
| Time | 2026-05-05 14:14 |
|---|---|
| Airport | Frankfurt Main Airport (EDDF) |
Arrival
| Time | 2026-05-05 14:37 |
|---|---|
| Airport | Düsseldorf Airport (EDDL) |
| Time | Latitude | Longitude | Altitude | Speed | Heading |
|---|---|---|---|---|---|
| 2026-05-05 13:57 | 50.03703 | 8.54137 | 350 ft | 0 kts | 160° |
| 2026-05-05 14:08 | 50.03690 | 8.54143 | 353 ft | 8 kts | 160° |
| 2026-05-05 14:08 | 50.03633 | 8.54252 | 342 ft | 17 kts | 77° |
| 2026-05-05 14:08 | 50.03697 | 8.54435 | 344 ft | 27 kts | 74° |
| 2026-05-05 14:09 | 50.03759 | 8.54737 | 350 ft | 29 kts | 71° |
| 2026-05-05 14:09 | 50.03829 | 8.55038 | 352 ft | 30 kts | 70° |
| 2026-05-05 14:09 | 50.03901 | 8.55331 | 355 ft | 20 kts | 68° |
| 2026-05-05 14:09 | 50.03935 | 8.55478 | 349 ft | 20 kts | 70° |
| 2026-05-05 14:10 | 50.04004 | 8.55765 | 353 ft | 32 kts | 69° |
| 2026-05-05 14:10 | 50.04068 | 8.56035 | 360 ft | 24 kts | 68° |
| 2026-05-05 14:10 | 50.04126 | 8.56271 | 356 ft | 24 kts | 69° |
| 2026-05-05 14:10 | 50.04197 | 8.56579 | 362 ft | 35 kts | 70° |
| 2026-05-05 14:11 | 50.04229 | 8.56736 | 361 ft | 0 kts | 72° |
| 2026-05-05 14:11 | 50.04230 | 8.56736 | 361 ft | 0 kts | 72° |
| 2026-05-05 14:11 | 50.04239 | 8.56767 | 359 ft | 8 kts | 64° |
| 2026-05-05 14:12 | 50.04276 | 8.56902 | 362 ft | 19 kts | 70° |
| 2026-05-05 14:12 | 50.04322 | 8.57097 | 367 ft | 18 kts | 71° |
| 2026-05-05 14:12 | 50.04362 | 8.57269 | 364 ft | 20 kts | 69° |
| 2026-05-05 14:12 | 50.04434 | 8.57564 | 364 ft | 23 kts | 71° |
| 2026-05-05 14:13 | 50.04428 | 8.57617 | 365 ft | 5 kts | 136° |
| 2026-05-05 14:13 | 50.04369 | 8.57668 | 364 ft | 13 kts | 161° |
| 2026-05-05 14:13 | 50.04280 | 8.57695 | 362 ft | 10 kts | 200° |
| 2026-05-05 14:13 | 50.04249 | 8.57599 | 366 ft | 20 kts | 251° |
| 2026-05-05 14:14 | 50.04113 | 8.57024 | 364 ft | 89 kts | 250° |
| 2026-05-05 14:14 | 50.03828 | 8.55830 | 354 ft | 143 kts | 249° |
| 2026-05-05 14:14 | 50.03484 | 8.54324 | 856 ft | 143 kts | 250° |
| 2026-05-05 14:14 | 50.03137 | 8.52858 | 1311 ft | 148 kts | 249° |
| 2026-05-05 14:15 | 50.02623 | 8.50802 | 1792 ft | 165 kts | 242° |
| 2026-05-05 14:15 | 50.02177 | 8.49749 | 1881 ft | 186 kts | 228° |
| 2026-05-05 14:15 | 50.01325 | 8.48145 | 2158 ft | 210 kts | 244° |
| 2026-05-05 14:15 | 50.01139 | 8.45827 | 2500 ft | 235 kts | 277° |
| 2026-05-05 14:16 | 50.01541 | 8.43244 | 3006 ft | 256 kts | 286° |
| 2026-05-05 14:16 | 50.02444 | 8.39112 | 4347 ft | 263 kts | 287° |
| 2026-05-05 14:16 | 50.03633 | 8.33619 | 6263 ft | 273 kts | 290° |
| 2026-05-05 14:16 | 50.06364 | 8.29776 | 8066 ft | 291 kts | 345° |
| 2026-05-05 14:17 | 50.10350 | 8.30606 | 9869 ft | 299 kts | 19° |
| 2026-05-05 14:17 | 50.14470 | 8.32811 | 10807 ft | 342 kts | 20° |
| 2026-05-05 14:17 | 50.19214 | 8.35335 | 11806 ft | 372 kts | 19° |
| 2026-05-05 14:17 | 50.24169 | 8.37920 | 13160 ft | 380 kts | 19° |
| 2026-05-05 14:18 | 50.27943 | 8.39889 | 14122 ft | 386 kts | 19° |
| 2026-05-05 14:18 | 50.30500 | 8.41237 | 14708 ft | 390 kts | 19° |
| 2026-05-05 14:18 | 50.33082 | 8.42628 | 15275 ft | 395 kts | 19° |
| 2026-05-05 14:18 | 50.35690 | 8.44054 | 15904 ft | 399 kts | 20° |
| 2026-05-05 14:19 | 50.38331 | 8.45508 | 16542 ft | 405 kts | 20° |
| 2026-05-05 14:19 | 50.40997 | 8.46976 | 17140 ft | 409 kts | 19° |
| 2026-05-05 14:19 | 50.43667 | 8.48444 | 17717 ft | 414 kts | 19° |
| 2026-05-05 14:19 | 50.46439 | 8.49966 | 18299 ft | 419 kts | 19° |
| 2026-05-05 14:20 | 50.49165 | 8.51426 | 18808 ft | 422 kts | 18° |
| 2026-05-05 14:20 | 50.51971 | 8.52823 | 19320 ft | 425 kts | 17° |
| 2026-05-05 14:20 | 50.54823 | 8.54125 | 19829 ft | 428 kts | 12° |
| 2026-05-05 14:20 | 50.57790 | 8.54548 | 20308 ft | 430 kts | 355° |
| 2026-05-05 14:21 | 50.60713 | 8.53637 | 20793 ft | 430 kts | 338° |
| 2026-05-05 14:21 | 50.65362 | 8.48988 | 21680 ft | 431 kts | 320° |
| 2026-05-05 14:21 | 50.70114 | 8.43155 | 22559 ft | 437 kts | 320° |
| 2026-05-05 14:21 | 50.73200 | 8.39388 | 22840 ft | 447 kts | 320° |
| 2026-05-05 14:22 | 50.75656 | 8.36385 | 22837 ft | 457 kts | 320° |
| 2026-05-05 14:22 | 50.78173 | 8.33307 | 22839 ft | 460 kts | 321° |
| 2026-05-05 14:22 | 50.81674 | 8.29023 | 22843 ft | 461 kts | 320° |
| 2026-05-05 14:22 | 50.86731 | 8.22796 | 22834 ft | 461 kts | 320° |
| 2026-05-05 14:23 | 50.91784 | 8.16553 | 22841 ft | 461 kts | 320° |
| 2026-05-05 14:23 | 50.96841 | 8.10295 | 22838 ft | 461 kts | 320° |
| 2026-05-05 14:23 | 51.01890 | 8.04041 | 22840 ft | 461 kts | 320° |
| 2026-05-05 14:23 | 51.06952 | 7.97752 | 22825 ft | 461 kts | 320° |
| 2026-05-05 14:24 | 51.11994 | 7.91458 | 22295 ft | 462 kts | 320° |
| 2026-05-05 14:24 | 51.17081 | 7.85096 | 20529 ft | 458 kts | 320° |
| 2026-05-05 14:24 | 51.20386 | 7.80947 | 19548 ft | 452 kts | 320° |
| 2026-05-05 14:24 | 51.22658 | 7.77567 | 18977 ft | 442 kts | 308° |
| 2026-05-05 14:25 | 51.24325 | 7.73488 | 18097 ft | 440 kts | 293° |
| 2026-05-05 14:25 | 51.25236 | 7.68880 | 17250 ft | 434 kts | 278° |
| 2026-05-05 14:25 | 51.25362 | 7.64127 | 16604 ft | 424 kts | 264° |
| 2026-05-05 14:25 | 51.25087 | 7.59508 | 15403 ft | 415 kts | 262° |
| 2026-05-05 14:26 | 51.24789 | 7.54956 | 14154 ft | 409 kts | 262° |
| 2026-05-05 14:26 | 51.24484 | 7.50486 | 12896 ft | 402 kts | 262° |
| 2026-05-05 14:26 | 51.24178 | 7.46089 | 11680 ft | 394 kts | 262° |
| 2026-05-05 14:26 | 51.23887 | 7.41902 | 11029 ft | 374 kts | 262° |
| 2026-05-05 14:27 | 51.23620 | 7.38012 | 10145 ft | 345 kts | 263° |
| 2026-05-05 14:27 | 51.23373 | 7.34237 | 9256 ft | 337 kts | 262° |
| 2026-05-05 14:27 | 51.23133 | 7.30686 | 9116 ft | 309 kts | 262° |
| 2026-05-05 14:27 | 51.22908 | 7.27396 | 8827 ft | 290 kts | 262° |
| 2026-05-05 14:28 | 51.22679 | 7.24094 | 8666 ft | 281 kts | 261° |
| 2026-05-05 14:28 | 51.22241 | 7.17911 | 8413 ft | 280 kts | 262° |
| 2026-05-05 14:28 | 51.21805 | 7.11749 | 8162 ft | 278 kts | 261° |
| 2026-05-05 14:28 | 51.21371 | 7.05632 | 7782 ft | 275 kts | 261° |
| 2026-05-05 14:29 | 51.20945 | 6.99649 | 7044 ft | 270 kts | 262° |
| 2026-05-05 14:29 | 51.20515 | 6.93711 | 6243 ft | 268 kts | 262° |
| 2026-05-05 14:29 | 51.20253 | 6.90091 | 5708 ft | 267 kts | 262° |
| 2026-05-05 14:29 | 51.20042 | 6.87197 | 5529 ft | 256 kts | 262° |
| 2026-05-05 14:30 | 51.19720 | 6.84488 | 5385 ft | 243 kts | 247° |
| 2026-05-05 14:30 | 51.18840 | 6.82138 | 4683 ft | 255 kts | 233° |
| 2026-05-05 14:30 | 51.17738 | 6.79865 | 4125 ft | 260 kts | 231° |
| 2026-05-05 14:30 | 51.16638 | 6.77670 | 3994 ft | 247 kts | 231° |
| 2026-05-05 14:31 | 51.15587 | 6.75585 | 3867 ft | 236 kts | 231° |
| 2026-05-05 14:31 | 51.14655 | 6.73515 | 3681 ft | 227 kts | 245° |
| 2026-05-05 14:31 | 51.14290 | 6.71122 | 3367 ft | 223 kts | 272° |
| 2026-05-05 14:31 | 51.14589 | 6.68760 | 3068 ft | 219 kts | 289° |
| 2026-05-05 14:32 | 51.15041 | 6.66440 | 3010 ft | 222 kts | 288° |
| 2026-05-05 14:32 | 51.15497 | 6.64085 | 3010 ft | 223 kts | 288° |
| 2026-05-05 14:32 | 51.15952 | 6.61729 | 3004 ft | 223 kts | 288° |
| 2026-05-05 14:32 | 51.16542 | 6.59467 | 2991 ft | 222 kts | 308° |
| 2026-05-05 14:33 | 51.17758 | 6.58066 | 2912 ft | 217 kts | 346° |
| 2026-05-05 14:33 | 51.19238 | 6.58068 | 2821 ft | 216 kts | 20° |
| 2026-05-05 14:33 | 51.20434 | 6.59438 | 2623 ft | 214 kts | 51° |
| 2026-05-05 14:33 | 51.21341 | 6.61331 | 2366 ft | 213 kts | 52° |
| 2026-05-05 14:34 | 51.22201 | 6.63154 | 2122 ft | 197 kts | 51° |
| 2026-05-05 14:34 | 51.23008 | 6.64846 | 1840 ft | 193 kts | 52° |
| 2026-05-05 14:34 | 51.23813 | 6.66534 | 1552 ft | 189 kts | 51° |
| 2026-05-05 14:34 | 51.24575 | 6.68120 | 1318 ft | 170 kts | 50° |
| 2026-05-05 14:35 | 51.25237 | 6.69504 | 1106 ft | 146 kts | 51° |
| 2026-05-05 14:35 | 51.25838 | 6.70759 | 904 ft | 137 kts | 51° |
| 2026-05-05 14:35 | 51.26417 | 6.71974 | 730 ft | 136 kts | 50° |
| 2026-05-05 14:35 | 51.26986 | 6.73168 | 526 ft | 133 kts | 48° |
| 2026-05-05 14:36 | 51.27552 | 6.74338 | 361 ft | 136 kts | 49° |
| 2026-05-05 14:36 | 51.28122 | 6.75536 | 168 ft | 135 kts | 51° |
| 2026-05-05 14:36 | 51.28638 | 6.76603 | 127 ft | 101 kts | 51° |
| 2026-05-05 14:36 | 51.28913 | 6.77186 | 126 ft | 54 kts | 52° |
| 2026-05-05 14:37 | 51.29027 | 6.77515 | 129 ft | 14 kts | 114° |
| 2026-05-05 14:37 | 51.29002 | 6.77568 | 128 ft | 1 kts | 130° |
| 2026-05-05 14:37 | 51.28962 | 6.77624 | 129 ft | 10 kts | 143° |
| 2026-05-05 14:37 | 51.28908 | 6.77656 | 129 ft | 7 kts | 198° |
| 2026-05-05 14:38 | 51.28871 | 6.77584 | 129 ft | 15 kts | 234° |
| 2026-05-05 14:38 | 51.28804 | 6.77438 | 128 ft | 16 kts | 233° |
| 2026-05-05 14:38 | 51.28742 | 6.77306 | 127 ft | 14 kts | 233° |
| 2026-05-05 14:38 | 51.28662 | 6.77147 | 130 ft | 28 kts | 229° |
| 2026-05-05 14:39 | 51.28537 | 6.76876 | 123 ft | 29 kts | 231° |
| 2026-05-05 14:39 | 51.28421 | 6.76633 | 122 ft | 28 kts | 232° |
| 2026-05-05 14:39 | 51.28304 | 6.76387 | 124 ft | 27 kts | 232° |
| 2026-05-05 14:39 | 51.28190 | 6.76155 | 126 ft | 26 kts | 233° |
| 2026-05-05 14:40 | 51.28134 | 6.76047 | 129 ft | 1 kts | 229° |
| 2026-05-05 14:40 | 51.28122 | 6.76019 | 129 ft | 12 kts | 236° |
| 2026-05-05 14:40 | 51.28042 | 6.75850 | 127 ft | 20 kts | 214° |
| 2026-05-05 14:40 | 51.27922 | 6.75828 | 126 ft | 15 kts | 161° |
| 2026-05-05 14:41 | 51.27907 | 6.75885 | 126 ft | 2 kts | 51° |
| 2026-05-05 14:41 | 51.27914 | 6.75939 | 125 ft | 1 kts | 99° |
| 2026-05-05 14:41 | 51.27914 | 6.75937 | 126 ft | 2 kts | 105° |
| 2026-05-05 14:41 | 51.27914 | 6.75946 | 124 ft | 0 kts | 95° |